Time;durP1;ratioP1;P1;durP2;ratioP2;P2;SDS_P1;SDS_P2;PMS_P1;PMS_P2;Temp;Humidity;BMP_temperature;BMP_pressure;BME280_temperature;BME280_humidity;BME280_pressure;Samples;Min_cycle;Max_cycle;Signal;HPM_P1;HPM_P2
2022/10/16 00:00:35;;;;;;;1.33;0.70;;;;;;;;;;4973543;28;20441;-68
2022/10/16 00:03:01;;;;;;;0.93;0.80;;;;;;;;;;4972154;28;20442;-69
2022/10/16 00:05:27;;;;;;;3.60;1.20;;;;;;;;;;4974493;28;20429;-69
2022/10/16 00:07:53;;;;;;;1.00;1.00;;;;;;;;;;4972979;28;20500;-68
2022/10/16 00:10:19;;;;;;;1.80;0.93;;;;;;;;;;4973419;28;20503;-68
2022/10/16 00:12:45;;;;;;;1.40;1.17;;;;;;;;;;4973341;28;20517;-68
2022/10/16 00:15:11;;;;;;;1.20;1.20;;;;;;;;;;4973754;28;20430;-68
2022/10/16 00:17:37;;;;;;;0.80;0.80;;;;;;;;;;4973394;28;20472;-68
2022/10/16 00:20:03;;;;;;;1.20;1.20;;;;;;;;;;4973523;28;20837;-68
2022/10/16 00:22:30;;;;;;;2.50;0.90;;;;;;;;;;4973162;28;20465;-68
2022/10/16 00:24:56;;;;;;;1.37;1.27;;;;;;;;;;4972286;28;20453;-69
2022/10/16 00:27:22;;;;;;;1.90;0.93;;;;;;;;;;4972308;28;20446;-69
2022/10/16 00:29:51;;;;;;;1.37;1.27;;;;;;;;;;4973088;28;20470;-69
2022/10/16 00:32:18;;;;;;;1.17;1.17;;;;;;;;;;4972115;28;20513;-68
2022/10/16 00:34:44;;;;;;;2.40;0.93;;;;;;;;;;4973209;28;20445;-68
2022/10/16 00:37:10;;;;;;;2.50;1.30;;;;;;;;;;4973617;28;20480;-68
2022/10/16 00:39:36;;;;;;;0.90;0.90;;;;;;;;;;4972715;28;20437;-69
2022/10/16 00:42:02;;;;;;;1.47;1.47;;;;;;;;;;4971775;28;20878;-68
2022/10/16 00:44:47;;;;;;;1.43;1.33;;;;;;;;;;4973791;28;20417;-68
2022/10/16 00:47:16;;;;;;;1.20;1.10;;;;;;;;;;4973551;28;20457;-68
2022/10/16 00:49:42;;;;;;;1.00;1.00;;;;;;;;;;4972789;28;20504;-69
2022/10/16 00:52:08;;;;;;;1.53;1.43;;;;;;;;;;4971035;28;20918;-68
2022/10/16 00:54:34;;;;;;;1.50;1.50;;;;;;;;;;4972067;28;20473;-68
2022/10/16 00:57:01;;;;;;;4.23;1.53;;;;;;;;;;4973186;28;20835;-68
2022/10/16 00:59:29;;;;;;;1.30;1.30;;;;;;;;;;4972253;28;20438;-68
2022/10/16 01:01:56;;;;;;;3.03;1.70;;;;;;;;;;4971755;28;20504;-68
2022/10/16 01:04:23;;;;;;;3.07;1.70;;;;;;;;;;4973021;28;20914;-69
2022/10/16 01:06:55;;;;;;;4.50;1.70;;;;;;;;;;4972390;28;20426;-68
2022/10/16 01:09:24;;;;;;;1.83;1.70;;;;;;;;;;4972111;28;20485;-68
2022/10/16 01:12:09;;;;;;;2.97;0.90;;;;;;;;;;4972219;28;20442;-68
2022/10/16 01:14:54;;;;;;;3.40;1.80;;;;;;;;;;4972912;28;20934;-69
2022/10/16 01:17:33;;;;;;;2.10;1.30;;;;;;;;;;4971441;28;20492;-68
2022/10/16 01:20:18;;;;;;;1.60;1.60;;;;;;;;;;4972463;28;20434;-69
2022/10/16 01:23:01;;;;;;;6.53;1.47;;;;;;;;;;4971454;28;20429;-69
2022/10/16 01:25:45;;;;;;;1.20;1.20;;;;;;;;;;4972198;28;20442;-68
2022/10/16 01:28:12;;;;;;;1.50;1.50;;;;;;;;;;4971174;28;20432;-69
2022/10/16 01:30:39;;;;;;;1.67;1.57;;;;;;;;;;4971451;28;20438;-68
2022/10/16 01:33:10;;;;;;;3.90;1.60;;;;;;;;;;4971486;28;20445;-68
2022/10/16 01:35:43;;;;;;;1.53;0.90;;;;;;;;;;4972221;28;20457;-69
2022/10/16 01:38:12;;;;;;;1.70;1.23;;;;;;;;;;4972085;28;20500;-69
2022/10/16 01:40:40;;;;;;;5.50;1.60;;;;;;;;;;4971464;28;20464;-68
2022/10/16 01:43:08;;;;;;;13.17;4.63;;;;;;;;;;4971467;28;20434;-68
2022/10/16 01:45:35;;;;;;;1.53;1.53;;;;;;;;;;4971037;28;20438;-68
2022/10/16 01:48:04;;;;;;;2.10;1.40;;;;;;;;;;4971695;28;21325;-68
2022/10/16 01:50:31;;;;;;;1.90;1.80;;;;;;;;;;4971373;28;20434;-68
2022/10/16 01:52:58;;;;;;;2.43;2.43;;;;;;;;;;4970401;28;20453;-69
2022/10/16 01:55:27;;;;;;;1.63;1.17;;;;;;;;;;4969302;28;20434;-68
2022/10/16 01:57:53;;;;;;;1.70;1.70;;;;;;;;;;4971694;28;20500;-68
2022/10/16 02:00:21;;;;;;;4.10;1.57;;;;;;;;;;4971196;28;20482;-68
2022/10/16 02:02:48;;;;;;;2.30;1.63;;;;;;;;;;4971337;28;20517;-68
2022/10/16 02:05:33;;;;;;;3.70;2.30;;;;;;;;;;4971090;28;20492;-68
2022/10/16 02:07:59;;;;;;;3.73;1.50;;;;;;;;;;4971921;28;20861;-68
2022/10/16 02:10:25;;;;;;;1.00;1.00;;;;;;;;;;4971232;28;20465;-69
2022/10/16 02:12:57;;;;;;;8.03;1.67;;;;;;;;;;4970683;28;20946;-68
2022/10/16 02:15:23;;;;;;;1.80;1.70;;;;;;;;;;4971835;28;20427;-68
2022/10/16 02:17:48;;;;;;;4.00;1.10;;;;;;;;;;4970650;28;20484;-68
2022/10/16 02:20:15;;;;;;;1.93;1.83;;;;;;;;;;4971184;28;20501;-68
2022/10/16 02:22:42;;;;;;;1.87;1.77;;;;;;;;;;4969724;28;20461;-68
2022/10/16 02:25:29;;;;;;;1.13;1.13;;;;;;;;;;4971374;28;20492;-68
2022/10/16 02:28:01;;;;;;;2.83;1.63;;;;;;;;;;4970841;28;20422;-68
2022/10/16 02:30:40;;;;;;;1.87;1.80;;;;;;;;;;4970603;28;20438;-68
2022/10/16 02:33:07;;;;;;;10.00;1.57;;;;;;;;;;4970514;28;20425;-68
2022/10/16 02:35:34;;;;;;;8.73;1.10;;;;;;;;;;4971507;28;20560;-68
2022/10/16 02:38:01;;;;;;;1.17;1.17;;;;;;;;;;4971298;28;20485;-68
2022/10/16 02:40:27;;;;;;;1.43;1.33;;;;;;;;;;4971075;28;20434;-68
2022/10/16 02:42:54;;;;;;;2.30;1.37;;;;;;;;;;4968688;28;20468;-68
2022/10/16 02:45:21;;;;;;;2.83;1.10;;;;;;;;;;4971083;28;20533;-69
2022/10/16 02:47:47;;;;;;;0.80;0.80;;;;;;;;;;4970741;28;20446;-68
2022/10/16 02:50:13;;;;;;;4.53;1.20;;;;;;;;;;4971046;28;20429;-68
2022/10/16 02:52:39;;;;;;;1.40;1.40;;;;;;;;;;4970485;28;20422;-68
2022/10/16 02:55:05;;;;;;;1.13;1.13;;;;;;;;;;4969901;28;20445;-68
2022/10/16 02:57:31;;;;;;;2.77;1.30;;;;;;;;;;4970415;28;20485;-68
2022/10/16 02:59:57;;;;;;;12.60;1.83;;;;;;;;;;4970789;28;20454;-68
2022/10/16 03:02:23;;;;;;;4.80;1.30;;;;;;;;;;4969817;28;20422;-69
2022/10/16 03:04:49;;;;;;;2.83;1.73;;;;;;;;;;4970812;28;20931;-68
2022/10/16 03:07:15;;;;;;;1.77;1.73;;;;;;;;;;4969808;28;20430;-69
2022/10/16 03:09:41;;;;;;;2.10;1.90;;;;;;;;;;4970007;28;20474;-68
2022/10/16 03:12:07;;;;;;;1.30;1.20;;;;;;;;;;4969859;28;20418;-68
2022/10/16 03:14:33;;;;;;;2.20;1.70;;;;;;;;;;4970423;28;20468;-69
2022/10/16 03:16:59;;;;;;;1.40;1.40;;;;;;;;;;4970921;28;20449;-69
2022/10/16 03:19:25;;;;;;;3.23;1.33;;;;;;;;;;4969988;28;20504;-68
2022/10/16 03:21:51;;;;;;;2.00;1.90;;;;;;;;;;4969910;28;20442;-68
2022/10/16 03:24:17;;;;;;;2.43;1.50;;;;;;;;;;4970254;28;20456;-69
2022/10/16 03:26:43;;;;;;;2.53;1.30;;;;;;;;;;4971081;28;20802;-69
2022/10/16 03:29:09;;;;;;;2.67;1.80;;;;;;;;;;4970474;28;20499;-68
2022/10/16 03:31:35;;;;;;;4.37;1.30;;;;;;;;;;4970356;28;20449;-68
2022/10/16 03:34:01;;;;;;;1.80;1.70;;;;;;;;;;4973931;28;20449;-68
2022/10/16 03:36:27;;;;;;;5.40;1.40;;;;;;;;;;4974401;28;20473;-68
2022/10/16 03:38:53;;;;;;;2.50;1.60;;;;;;;;;;4974284;28;21021;-68
2022/10/16 03:41:19;;;;;;;9.90;1.30;;;;;;;;;;4974674;28;20799;-68
2022/10/16 03:43:45;;;;;;;1.30;1.20;;;;;;;;;;4973107;28;20438;-68
2022/10/16 03:46:11;;;;;;;4.33;1.60;;;;;;;;;;4972781;28;20473;-68
2022/10/16 03:48:37;;;;;;;6.40;1.40;;;;;;;;;;4973526;28;20437;-68
2022/10/16 03:51:03;;;;;;;2.17;1.70;;;;;;;;;;4973864;28;20442;-68
2022/10/16 03:53:29;;;;;;;1.50;1.30;;;;;;;;;;4972458;28;20442;-68
2022/10/16 03:55:55;;;;;;;1.13;1.13;;;;;;;;;;4973936;28;20930;-68
2022/10/16 03:58:21;;;;;;;2.37;1.77;;;;;;;;;;4974111;28;20485;-68
2022/10/16 04:00:48;;;;;;;2.10;1.60;;;;;;;;;;4973076;28;20461;-68
2022/10/16 04:03:14;;;;;;;4.00;1.60;;;;;;;;;;4972372;28;20449;-68
2022/10/16 04:05:40;;;;;;;3.80;1.27;;;;;;;;;;4974291;28;20413;-68
2022/10/16 04:08:06;;;;;;;1.33;1.20;;;;;;;;;;4973984;28;20441;-68
2022/10/16 04:10:32;;;;;;;1.67;1.57;;;;;;;;;;4972826;28;20547;-69
2022/10/16 04:12:58;;;;;;;1.20;1.20;;;;;;;;;;4972904;28;20449;-67
2022/10/16 04:15:24;;;;;;;1.90;1.50;;;;;;;;;;4973827;28;20504;-68
2022/10/16 04:17:50;;;;;;;3.80;1.50;;;;;;;;;;4973024;28;20913;-69
2022/10/16 04:20:16;;;;;;;1.70;1.43;;;;;;;;;;4973329;28;20433;-68
2022/10/16 04:22:42;;;;;;;1.30;1.20;;;;;;;;;;4973177;28;20435;-67
2022/10/16 04:25:09;;;;;;;1.10;1.10;;;;;;;;;;4971820;28;20472;-68
2022/10/16 04:27:35;;;;;;;1.53;1.40;;;;;;;;;;4973510;28;20430;-69
2022/10/16 04:30:01;;;;;;;5.53;1.57;;;;;;;;;;4973636;28;20992;-68
2022/10/16 04:32:27;;;;;;;1.40;1.30;;;;;;;;;;4971899;28;20445;-68
2022/10/16 04:34:53;;;;;;;2.23;1.40;;;;;;;;;;4972942;28;20429;-68
2022/10/16 04:37:19;;;;;;;4.30;1.40;;;;;;;;;;4972232;28;21016;-68
2022/10/16 04:39:45;;;;;;;4.87;1.70;;;;;;;;;;4972885;28;20446;-68
2022/10/16 04:42:11;;;;;;;1.63;1.53;;;;;;;;;;4972036;28;20448;-68
2022/10/16 04:44:37;;;;;;;4.77;1.10;;;;;;;;;;4972528;28;21010;-68
2022/10/16 04:47:04;;;;;;;1.87;1.23;;;;;;;;;;4972786;28;20525;-68
2022/10/16 04:49:30;;;;;;;9.13;1.40;;;;;;;;;;4973573;28;20509;-68
2022/10/16 04:51:56;;;;;;;12.23;2.30;;;;;;;;;;4967346;28;20524;-67
2022/10/16 04:54:22;;;;;;;1.70;1.60;;;;;;;;;;4972401;28;20438;-68
2022/10/16 04:56:50;;;;;;;18.23;1.37;;;;;;;;;;4971361;28;20519;-68
2022/10/16 04:59:17;;;;;;;9.93;1.30;;;;;;;;;;4971900;28;20553;-67
2022/10/16 05:01:43;;;;;;;4.50;1.07;;;;;;;;;;4970204;28;20516;-68
2022/10/16 05:04:09;;;;;;;2.13;1.50;;;;;;;;;;4970593;28;20899;-67
2022/10/16 05:06:35;;;;;;;1.43;1.43;;;;;;;;;;4972372;28;20462;-68
2022/10/16 05:09:01;;;;;;;3.70;1.97;;;;;;;;;;4971633;28;21017;-67
2022/10/16 05:11:27;;;;;;;1.67;1.57;;;;;;;;;;4969844;28;20434;-68
2022/10/16 05:13:53;;;;;;;8.23;1.57;;;;;;;;;;4970516;28;20557;-68
2022/10/16 05:16:19;;;;;;;1.40;1.30;;;;;;;;;;4971359;28;20481;-68
2022/10/16 05:18:45;;;;;;;1.87;1.27;;;;;;;;;;4970337;28;21017;-68
2022/10/16 05:21:11;;;;;;;1.50;1.40;;;;;;;;;;4971434;28;20434;-69
2022/10/16 05:23:37;;;;;;;1.57;1.40;;;;;;;;;;4971443;28;20438;-68
2022/10/16 05:26:03;;;;;;;1.00;1.00;;;;;;;;;;4971645;28;20848;-68
2022/10/16 05:28:30;;;;;;;2.03;1.90;;;;;;;;;;4971250;28;20869;-68
2022/10/16 05:30:56;;;;;;;3.03;1.80;;;;;;;;;;4970934;28;20426;-67
2022/10/16 05:33:23;;;;;;;2.00;2.00;;;;;;;;;;4968563;28;20493;-68
2022/10/16 05:35:49;;;;;;;2.50;2.40;;;;;;;;;;4970335;28;20434;-67
2022/10/16 05:38:15;;;;;;;1.80;1.80;;;;;;;;;;4971442;28;20521;-68
2022/10/16 05:40:41;;;;;;;2.20;1.80;;;;;;;;;;4971531;28;20418;-67
2022/10/16 05:43:07;;;;;;;6.20;1.40;;;;;;;;;;4969857;28;20496;-68
2022/10/16 05:45:33;;;;;;;2.80;2.27;;;;;;;;;;4970313;28;20481;-68
2022/10/16 05:48:00;;;;;;;4.60;2.13;;;;;;;;;;4971256;28;20923;-68
2022/10/16 05:50:26;;;;;;;1.50;1.50;;;;;;;;;;4971692;28;20418;-68
2022/10/16 05:52:52;;;;;;;1.10;1.10;;;;;;;;;;4969244;28;20489;-68
2022/10/16 05:55:18;;;;;;;5.30;1.77;;;;;;;;;;4970046;28;20441;-68
2022/10/16 05:57:44;;;;;;;12.40;1.17;;;;;;;;;;4970913;28;20488;-67
2022/10/16 06:00:10;;;;;;;1.60;1.20;;;;;;;;;;4971305;28;20454;-68
2022/10/16 06:02:36;;;;;;;1.83;1.67;;;;;;;;;;4969019;28;20442;-68
2022/10/16 06:05:02;;;;;;;1.20;1.20;;;;;;;;;;4970014;28;20445;-68
2022/10/16 06:07:28;;;;;;;6.23;1.40;;;;;;;;;;4970042;28;20650;-68
2022/10/16 06:09:54;;;;;;;1.33;1.23;;;;;;;;;;4970702;28;20466;-68
2022/10/16 06:12:20;;;;;;;3.47;1.60;;;;;;;;;;4970401;28;20453;-67
2022/10/16 06:14:46;;;;;;;2.00;2.00;;;;;;;;;;4970938;28;20460;-67
2022/10/16 06:17:13;;;;;;;7.00;1.63;;;;;;;;;;4969296;28;20470;-69
2022/10/16 06:19:40;;;;;;;1.67;1.40;;;;;;;;;;4970723;28;20873;-67
2022/10/16 06:22:06;;;;;;;1.50;1.50;;;;;;;;;;4970123;28;20433;-68
2022/10/16 06:24:32;;;;;;;3.07;1.50;;;;;;;;;;4969553;28;20429;-68
2022/10/16 06:26:58;;;;;;;2.20;1.60;;;;;;;;;;4970752;28;20453;-68
2022/10/16 06:29:24;;;;;;;3.10;2.87;;;;;;;;;;4971028;28;20418;-68
2022/10/16 06:31:50;;;;;;;7.93;3.40;;;;;;;;;;4968395;28;20426;-67
2022/10/16 06:34:16;;;;;;;4.53;3.73;;;;;;;;;;4968775;28;20858;-68
2022/10/16 06:36:43;;;;;;;12.40;5.30;;;;;;;;;;4969678;28;20437;-68
2022/10/16 06:39:09;;;;;;;16.33;4.60;;;;;;;;;;4970359;28;20481;-68
2022/10/16 06:41:35;;;;;;;7.40;4.33;;;;;;;;;;4970689;28;20426;-68
2022/10/16 06:44:01;;;;;;;19.97;4.80;;;;;;;;;;4970570;28;20509;-68
2022/10/16 06:46:27;;;;;;;6.40;3.90;;;;;;;;;;4971331;28;20445;-68
2022/10/16 06:48:53;;;;;;;3.10;1.93;;;;;;;;;;4969386;28;20446;-69
2022/10/16 06:51:20;;;;;;;4.43;1.80;;;;;;;;;;4969780;28;20508;-69
2022/10/16 06:53:48;;;;;;;2.50;2.30;;;;;;;;;;4969078;28;20481;-69
2022/10/16 06:56:20;;;;;;;2.67;2.50;;;;;;;;;;4970043;28;20438;-68
2022/10/16 06:58:46;;;;;;;2.10;1.50;;;;;;;;;;4970075;28;20850;-68
2022/10/16 07:01:13;;;;;;;1.53;1.53;;;;;;;;;;4969612;28;20438;-68
2022/10/16 07:03:40;;;;;;;2.10;2.00;;;;;;;;;;4970655;28;20450;-68
2022/10/16 07:06:07;;;;;;;2.57;2.47;;;;;;;;;;4969281;28;20430;-68
2022/10/16 07:08:36;;;;;;;1.97;1.87;;;;;;;;;;4968261;28;20433;-68
2022/10/16 07:11:04;;;;;;;2.57;1.73;;;;;;;;;;4969519;28;21052;-62
2022/10/16 07:13:30;;;;;;;1.33;1.30;;;;;;;;;;4967261;28;20431;-61
2022/10/16 07:15:56;;;;;;;13.53;1.77;;;;;;;;;;4969938;28;20521;-61
2022/10/16 07:18:26;;;;;;;11.57;1.83;;;;;;;;;;4968731;28;20517;-63
2022/10/16 07:20:52;;;;;;;1.30;1.30;;;;;;;;;;4969594;28;20478;-64
2022/10/16 07:23:18;;;;;;;2.53;1.43;;;;;;;;;;4967076;28;20442;-60
2022/10/16 07:25:44;;;;;;;3.47;1.60;;;;;;;;;;4966169;28;20480;-61
2022/10/16 07:28:10;;;;;;;1.30;1.30;;;;;;;;;;4970373;28;20218;-68
2022/10/16 07:30:37;;;;;;;0.90;0.90;;;;;;;;;;4969913;28;20934;-61
2022/10/16 07:33:03;;;;;;;2.60;1.00;;;;;;;;;;4969856;28;20434;-62
2022/10/16 07:35:29;;;;;;;2.33;1.43;;;;;;;;;;4968699;28;20442;-60
2022/10/16 07:37:55;;;;;;;3.50;1.33;;;;;;;;;;4967853;28;20494;-61
2022/10/16 07:40:21;;;;;;;7.83;1.60;;;;;;;;;;4969320;28;20515;-63
2022/10/16 07:42:47;;;;;;;1.53;0.90;;;;;;;;;;4969107;28;20981;-64
2022/10/16 07:45:13;;;;;;;7.13;1.20;;;;;;;;;;4969625;28;20469;-64
2022/10/16 07:47:39;;;;;;;2.67;1.30;;;;;;;;;;4968565;28;20430;-61
2022/10/16 07:50:05;;;;;;;2.73;1.80;;;;;;;;;;4967500;28;20484;-60
2022/10/16 07:52:31;;;;;;;7.67;2.10;;;;;;;;;;4969800;28;20429;-61
2022/10/16 07:54:57;;;;;;;3.50;1.00;;;;;;;;;;4968605;28;20429;-64
2022/10/16 07:57:23;;;;;;;1.70;1.60;;;;;;;;;;4970225;28;20632;-60
2022/10/16 07:59:49;;;;;;;6.30;1.73;;;;;;;;;;4969487;28;20449;-60
2022/10/16 08:02:15;;;;;;;1.80;1.13;;;;;;;;;;4968249;28;20927;-61
2022/10/16 08:04:41;;;;;;;5.33;1.40;;;;;;;;;;4968392;28;20843;-61
2022/10/16 08:07:08;;;;;;;1.30;1.17;;;;;;;;;;4969596;28;20977;-60
2022/10/16 08:09:34;;;;;;;0.93;0.93;;;;;;;;;;4968311;28;20234;-63
2022/10/16 08:12:00;;;;;;;2.57;1.33;;;;;;;;;;4968835;28;20461;-70
2022/10/16 08:14:26;;;;;;;2.77;1.20;;;;;;;;;;4969380;28;20438;-70
2022/10/16 08:16:53;;;;;;;2.20;1.57;;;;;;;;;;4968277;28;20480;-70
2022/10/16 08:19:18;;;;;;;1.60;1.10;;;;;;;;;;4967960;28;20850;-71
2022/10/16 08:21:47;;;;;;;4.97;1.97;;;;;;;;;;4987822;28;20444;-68
2022/10/16 08:24:13;;;;;;;1.53;1.30;;;;;;;;;;4971138;28;20894;-71
2022/10/16 08:26:39;;;;;;;2.93;1.17;;;;;;;;;;4972399;28;20513;-70
2022/10/16 08:29:05;;;;;;;3.73;1.80;;;;;;;;;;4973460;28;20871;-70
2022/10/16 08:31:31;;;;;;;2.10;1.30;;;;;;;;;;4971640;28;20438;-70
2022/10/16 08:33:57;;;;;;;3.20;1.53;;;;;;;;;;4970568;28;20450;-70
2022/10/16 08:36:23;;;;;;;1.50;1.40;;;;;;;;;;4972533;28;20449;-69
2022/10/16 08:38:50;;;;;;;13.00;4.50;;;;;;;;;;4971594;28;20481;-70
2022/10/16 08:41:35;;;;;;;7.00;5.33;;;;;;;;;;4972223;28;20437;-67
2022/10/16 08:44:19;;;;;;;6.60;2.87;;;;;;;;;;4971974;28;20440;-69
2022/10/16 08:47:04;;;;;;;2.47;1.70;;;;;;;;;;4973171;28;20517;-70
2022/10/16 08:49:30;;;;;;;19.63;2.20;;;;;;;;;;4970709;28;20433;-71
2022/10/16 08:51:57;;;;;;;1.57;1.57;;;;;;;;;;4972161;28;20434;-71
2022/10/16 08:54:29;;;;;;;4.83;1.47;;;;;;;;;;4972996;28;20797;-69
2022/10/16 08:56:56;;;;;;;5.60;1.57;;;;;;;;;;4971737;28;20456;-70
2022/10/16 08:59:22;;;;;;;5.37;1.20;;;;;;;;;;4971502;28;20470;-68
2022/10/16 09:01:50;;;;;;;1.47;1.37;;;;;;;;;;4971718;28;20537;-69
2022/10/16 09:04:35;;;;;;;5.50;1.63;;;;;;;;;;4971756;28;20822;-67
2022/10/16 09:07:04;;;;;;;6.03;1.40;;;;;;;;;;4971357;28;20911;-68
2022/10/16 09:09:30;;;;;;;4.30;1.13;;;;;;;;;;4970634;28;21007;-71
2022/10/16 09:12:00;;;;;;;1.90;1.90;;;;;;;;;;4971472;28;20446;-71
2022/10/16 09:14:46;;;;;;;6.73;1.60;;;;;;;;;;4972045;28;20844;-70
2022/10/16 09:17:15;;;;;;;5.53;1.30;;;;;;;;;;4971679;28;20442;-70
2022/10/16 09:19:45;;;;;;;1.80;1.80;;;;;;;;;;4969449;28;20438;-71
2022/10/16 09:22:14;;;;;;;1.63;1.53;;;;;;;;;;4971898;28;20426;-69
2022/10/16 09:24:40;;;;;;;4.10;3.90;;;;;;;;;;4971842;28;20998;-70
2022/10/16 09:27:11;;;;;;;9.57;8.80;;;;;;;;;;4971196;28;20561;-70
2022/10/16 09:29:37;;;;;;;8.37;7.50;;;;;;;;;;4970068;28;20440;-69
2022/10/16 09:32:12;;;;;;;25.43;18.57;;;;;;;;;;4971941;28;20442;-70
2022/10/16 09:34:42;;;;;;;3.13;2.90;;;;;;;;;;4971876;28;20440;-67
2022/10/16 09:37:10;;;;;;;2.50;1.90;;;;;;;;;;4971747;28;20438;-68
2022/10/16 09:39:47;;;;;;;1.30;1.30;;;;;;;;;;4970796;28;20438;-69
2022/10/16 09:42:21;;;;;;;1.70;1.70;;;;;;;;;;4969990;28;20957;-68
2022/10/16 09:44:53;;;;;;;5.33;2.33;;;;;;;;;;4971529;28;20441;-69
2022/10/16 09:47:21;;;;;;;4.80;3.13;;;;;;;;;;4970941;28;20438;-69
2022/10/16 09:49:55;;;;;;;2.27;1.97;;;;;;;;;;4971231;28;20430;-70
2022/10/16 09:52:21;;;;;;;1.97;1.87;;;;;;;;;;4970708;28;20429;-69
2022/10/16 09:54:54;;;;;;;2.13;2.00;;;;;;;;;;4971223;28;20572;-69
2022/10/16 09:57:20;;;;;;;2.10;1.37;;;;;;;;;;4968509;28;20469;-70
2022/10/16 09:59:51;;;;;;;4.53;1.70;;;;;;;;;;4970814;28;20445;-66
2022/10/16 10:02:18;;;;;;;4.30;1.10;;;;;;;;;;4971023;28;20496;-70
2022/10/16 10:04:53;;;;;;;3.40;1.93;;;;;;;;;;4971368;28;20444;-69
2022/10/16 10:07:24;;;;;;;1.80;1.30;;;;;;;;;;4970760;28;20428;-69
2022/10/16 10:09:50;;;;;;;1.17;1.17;;;;;;;;;;4970272;28;20560;-70
2022/10/16 10:12:20;;;;;;;6.00;2.80;;;;;;;;;;4971258;28;20518;-68
2022/10/16 10:14:51;;;;;;;1.70;1.60;;;;;;;;;;4970681;28;20446;-69
2022/10/16 10:17:17;;;;;;;3.47;1.20;;;;;;;;;;4968582;28;20806;-69
2022/10/16 10:19:46;;;;;;;8.13;1.83;;;;;;;;;;4970739;28;20450;-70
2022/10/16 10:22:18;;;;;;;6.63;1.23;;;;;;;;;;4971017;28;20465;-69
2022/10/16 10:24:45;;;;;;;1.70;1.40;;;;;;;;;;4970699;28;20438;-69
2022/10/16 10:27:15;;;;;;;1.33;1.33;;;;;;;;;;4969879;28;20430;-69
2022/10/16 10:30:03;;;;;;;1.50;1.50;;;;;;;;;;4970376;28;20453;-70
2022/10/16 10:32:47;;;;;;;5.10;1.50;;;;;;;;;;4973514;28;20445;-69
2022/10/16 10:35:19;;;;;;;2.83;1.40;;;;;;;;;;4971340;28;20441;-70
2022/10/16 10:37:48;;;;;;;1.53;1.43;;;;;;;;;;4970259;28;20473;-69
2022/10/16 10:40:35;;;;;;;3.23;1.80;;;;;;;;;;4970848;28;20904;-69
2022/10/16 10:43:10;;;;;;;12.50;1.70;;;;;;;;;;4969196;28;20820;-68
2022/10/16 10:45:48;;;;;;;1.77;1.47;;;;;;;;;;4970793;28;20483;-68
2022/10/16 10:48:22;;;;;;;1.77;1.67;;;;;;;;;;4969620;28;20954;-69
2022/10/16 10:50:54;;;;;;;2.87;1.60;;;;;;;;;;4970289;28;20938;-69
2022/10/16 10:53:39;;;;;;;4.03;1.07;;;;;;;;;;4968602;28;20449;-69
2022/10/16 10:56:18;;;;;;;1.30;1.30;;;;;;;;;;4971071;28;20774;-68
2022/10/16 10:59:13;;;;;;;1.43;1.37;;;;;;;;;;4970143;28;20571;-70
2022/10/16 11:01:48;;;;;;;2.37;1.83;;;;;;;;;;4916919;28;20445;-68
2022/10/16 11:04:23;;;;;;;3.83;1.93;;;;;;;;;;4970716;28;20513;-70
2022/10/16 11:06:51;;;;;;;11.10;1.43;;;;;;;;;;4968823;28;20441;-69
2022/10/16 11:09:33;;;;;;;3.17;1.87;;;;;;;;;;4969882;28;20585;-70
2022/10/16 11:12:07;;;;;;;8.13;1.83;;;;;;;;;;4968476;28;20442;-69
2022/10/16 11:14:52;;;;;;;1.57;1.57;;;;;;;;;;4969416;28;20924;-69
2022/10/16 11:17:25;;;;;;;3.30;1.57;;;;;;;;;;4970994;28;20445;-69
2022/10/16 11:19:51;;;;;;;1.50;1.40;;;;;;;;;;4969186;28;20440;-68
2022/10/16 11:22:20;;;;;;;4.27;1.10;;;;;;;;;;4970034;28;20430;-71
2022/10/16 11:24:49;;;;;;;1.57;1.47;;;;;;;;;;4970153;28;20430;-69
2022/10/16 11:27:17;;;;;;;0.80;0.80;;;;;;;;;;4969336;28;20437;-71
2022/10/16 11:30:12;;;;;;;3.67;1.03;;;;;;;;;;4968445;28;20443;-70
2022/10/16 11:32:51;;;;;;;9.13;1.27;;;;;;;;;;4954721;28;20512;-69
2022/10/16 11:35:23;;;;;;;1.10;1.10;;;;;;;;;;4968330;28;20775;-69
2022/10/16 11:37:50;;;;;;;1.70;1.33;;;;;;;;;;4969803;28;20494;-69
2022/10/16 11:40:22;;;;;;;3.93;1.23;;;;;;;;;;4969590;28;20480;-70
2022/10/16 11:42:55;;;;;;;2.00;1.23;;;;;;;;;;4969602;28;20818;-69
2022/10/16 11:45:29;;;;;;;1.80;1.07;;;;;;;;;;4970612;28;20513;-70
2022/10/16 11:48:01;;;;;;;4.90;1.65;;;;;;;;;;4970637;28;20317;-71
2022/10/16 11:50:31;;;;;;;1.63;1.20;;;;;;;;;;4968824;28;20226;-70
2022/10/16 11:53:17;;;;;;;1.00;1.00;;;;;;;;;;4969700;28;20449;-71
2022/10/16 11:55:45;;;;;;;0.90;0.90;;;;;;;;;;4961855;28;20429;-69
2022/10/16 11:58:16;;;;;;;2.30;1.17;;;;;;;;;;4974094;28;20477;-69
2022/10/16 12:00:48;;;;;;;2.73;1.03;;;;;;;;;;4973689;28;20485;-70
2022/10/16 12:03:28;;;;;;;1.00;1.00;;;;;;;;;;4972729;28;20536;-70
2022/10/16 12:06:00;;;;;;;0.70;0.70;;;;;;;;;;4972634;28;20993;-68
2022/10/16 12:08:27;;;;;;;1.10;1.10;;;;;;;;;;4973548;28;20437;-69
2022/10/16 12:10:55;;;;;;;1.33;1.33;;;;;;;;;;4972725;28;20469;-69
2022/10/16 12:13:48;;;;;;;1.30;1.30;;;;;;;;;;4972653;28;20528;-68
2022/10/16 12:16:14;;;;;;;0.90;0.90;;;;;;;;;;4970528;28;20461;-69
2022/10/16 12:18:41;;;;;;;0.77;0.77;;;;;;;;;;4973331;28;20978;-69
2022/10/16 12:21:07;;;;;;;2.00;0.87;;;;;;;;;;4972870;28;20504;-70
2022/10/16 12:23:37;;;;;;;1.03;1.03;;;;;;;;;;4971868;28;20445;-69
2022/10/16 12:26:03;;;;;;;7.73;1.50;;;;;;;;;;4973987;28;20433;-69
2022/10/16 12:28:30;;;;;;;1.47;1.47;;;;;;;;;;4972952;28;20453;-70
2022/10/16 12:30:58;;;;;;;0.83;0.83;;;;;;;;;;4972698;28;20426;-69
2022/10/16 12:33:28;;;;;;;4.17;2.37;;;;;;;;;;4972502;28;20433;-70
2022/10/16 12:35:54;;;;;;;0.73;0.73;;;;;;;;;;4972037;28;20446;-68
2022/10/16 12:38:26;;;;;;;0.60;0.60;;;;;;;;;;4973077;28;20488;-69
2022/10/16 12:41:12;;;;;;;1.03;0.80;;;;;;;;;;4973002;28;20481;-69
2022/10/16 12:43:42;;;;;;;1.03;0.90;;;;;;;;;;4972828;28;20457;-69
2022/10/16 12:46:11;;;;;;;5.30;1.40;;;;;;;;;;4972665;28;20844;-71
2022/10/16 12:48:38;;;;;;;5.07;1.30;;;;;;;;;;4972524;28;20849;-69
2022/10/16 12:51:22;;;;;;;1.63;1.07;;;;;;;;;;4970803;28;20441;-70
2022/10/16 12:54:00;;;;;;;1.90;0.80;;;;;;;;;;4971984;28;20512;-71
2022/10/16 12:56:29;;;;;;;1.23;1.13;;;;;;;;;;4971539;28;20456;-69
2022/10/16 12:59:04;;;;;;;10.63;1.27;;;;;;;;;;4971844;28;20494;-71
2022/10/16 13:01:33;;;;;;;1.27;1.27;;;;;;;;;;4971544;28;20436;-70
2022/10/16 13:03:59;;;;;;;1.20;1.20;;;;;;;;;;4972307;28;20454;-70
2022/10/16 13:06:38;;;;;;;5.70;1.13;;;;;;;;;;4970700;28;20585;-71
2022/10/16 13:09:23;;;;;;;2.60;2.50;;;;;;;;;;4970627;28;20498;-69
2022/10/16 13:12:11;;;;;;;1.70;1.67;;;;;;;;;;4972004;28;20445;-68
2022/10/16 13:14:40;;;;;;;2.10;1.57;;;;;;;;;;4972327;28;20500;-70
2022/10/16 13:17:24;;;;;;;1.97;1.93;;;;;;;;;;4971034;28;20429;-70
2022/10/16 13:19:53;;;;;;;0.80;0.80;;;;;;;;;;4971853;28;20450;-71
2022/10/16 13:22:31;;;;;;;1.97;1.93;;;;;;;;;;4971633;28;20477;-70
2022/10/16 13:25:15;;;;;;;1.60;1.60;;;;;;;;;;4972859;28;20473;-71
2022/10/16 13:27:44;;;;;;;11.83;1.20;;;;;;;;;;4970884;28;20426;-69
2022/10/16 13:30:25;;;;;;;1.20;1.13;;;;;;;;;;4971749;28;20465;-68
2022/10/16 13:32:55;;;;;;;4.00;1.20;;;;;;;;;;4971833;28;20997;-70
2022/10/16 13:35:23;;;;;;;10.53;1.97;;;;;;;;;;4972262;28;20438;-71
2022/10/16 13:37:49;;;;;;;1.80;1.13;;;;;;;;;;4970860;28;20470;-69
2022/10/16 13:40:20;;;;;;;3.43;1.07;;;;;;;;;;4972466;28;20961;-70
2022/10/16 13:42:46;;;;;;;1.63;0.80;;;;;;;;;;4969939;28;20434;-69
2022/10/16 13:45:23;;;;;;;1.20;1.20;;;;;;;;;;4969111;28;21024;-69
2022/10/16 13:47:49;;;;;;;1.37;1.37;;;;;;;;;;4970934;28;20434;-69
2022/10/16 13:50:17;;;;;;;0.90;0.90;;;;;;;;;;4971234;28;20433;-69
2022/10/16 13:52:43;;;;;;;0.70;0.70;;;;;;;;;;4970641;28;20429;-68
2022/10/16 13:55:13;;;;;;;3.37;0.90;;;;;;;;;;4971045;28;21090;-69
2022/10/16 13:57:40;;;;;;;1.70;0.80;;;;;;;;;;4971240;28;20461;-71
2022/10/16 14:00:38;;;;;;;0.73;0.73;;;;;;;;;;4971171;28;20437;-69
2022/10/16 14:03:15;;;;;;;0.70;0.70;;;;;;;;;;4937674;28;20482;-68
2022/10/16 14:05:49;;;;;;;2.67;1.37;;;;;;;;;;4969744;28;20440;-68
2022/10/16 14:08:15;;;;;;;0.70;0.70;;;;;;;;;;4969863;28;20771;-68
2022/10/16 14:10:42;;;;;;;1.00;1.00;;;;;;;;;;4971151;28;20535;-68
2022/10/16 14:13:08;;;;;;;0.70;0.70;;;;;;;;;;4970792;28;21019;-68
2022/10/16 14:15:36;;;;;;;1.83;0.97;;;;;;;;;;4971050;28;21012;-68
2022/10/16 14:18:02;;;;;;;1.07;0.90;;;;;;;;;;4969492;28;20532;-68
2022/10/16 14:20:29;;;;;;;0.70;0.70;;;;;;;;;;4970622;28;20449;-68
2022/10/16 14:23:03;;;;;;;1.40;1.00;;;;;;;;;;4970347;28;20418;-68
2022/10/16 14:25:31;;;;;;;0.80;0.80;;;;;;;;;;4969609;28;20497;-67
2022/10/16 14:28:16;;;;;;;0.63;0.63;;;;;;;;;;4969966;28;20931;-68
2022/10/16 14:30:55;;;;;;;2.43;1.10;;;;;;;;;;4970306;28;20438;-69
2022/10/16 14:33:31;;;;;;;0.80;0.80;;;;;;;;;;4969754;28;20426;-69
2022/10/16 14:36:03;;;;;;;0.83;0.83;;;;;;;;;;4968521;28;20430;-69
2022/10/16 14:38:29;;;;;;;0.57;0.57;;;;;;;;;;4970397;28;21005;-67
2022/10/16 14:40:57;;;;;;;2.63;0.60;;;;;;;;;;4970453;28;20978;-68
2022/10/16 14:43:30;;;;;;;0.50;0.50;;;;;;;;;;4970311;28;20469;-70
2022/10/16 14:45:57;;;;;;;0.67;0.67;;;;;;;;;;4970105;28;20436;-69
2022/10/16 14:48:23;;;;;;;0.90;0.90;;;;;;;;;;4970459;28;20443;-68
2022/10/16 14:50:49;;;;;;;0.60;0.60;;;;;;;;;;4970294;28;20786;-68
2022/10/16 14:53:15;;;;;;;0.63;0.63;;;;;;;;;;4968550;28;20964;-68
2022/10/16 14:55:42;;;;;;;1.47;0.87;;;;;;;;;;4968676;28;20430;-68